Liverpool, Canada
Current Conditions -  °F | °C
As of 9:00 AM on Monday 22 Dec 2014 (Local Time) from CYZX Reporting Station
Overcast Overcast  
Wind Chill: 23°   Ceiling: 2600
Heat Index: 30°   Visibility: 15mi
Dew Point: 27°   Wind: 7mph
Humidity: 86%   Direction: 70°ENE
Pressure: 30.45"   Gusts: NA
Location:  44.03°N, 64.72°W
Report Text: CYZX 221300Z 07006KT 15SM OVC026 M01/M03 A3045 RMK SC8 WNDY HILL 10009KT SLP315
Loading
Personal Weather Stations






























Interactive Weather Map New forecast layout! Learn more

10-Day Weather Forecast

Advertisements
Track Severe Weather on mobile